sensor_id;sensor_type;location;lat;lon;timestamp;P1;durP1;ratioP1;P2;durP2;ratioP2
8572;SDS011;4324;42.012;24.872;2024-03-07T00:02:08;22.03;;;18.30;;
8572;SDS011;4324;42.012;24.872;2024-03-07T00:04:35;23.50;;;18.13;;
8572;SDS011;4324;42.012;24.872;2024-03-07T00:07:02;22.87;;;19.53;;
8572;SDS011;4324;42.012;24.872;2024-03-07T00:09:31;22.50;;;19.47;;
8572;SDS011;4324;42.012;24.872;2024-03-07T00:11:58;24.23;;;20.07;;
8572;SDS011;4324;42.012;24.872;2024-03-07T00:14:26;24.13;;;20.03;;
8572;SDS011;4324;42.012;24.872;2024-03-07T00:16:54;28.83;;;21.83;;
8572;SDS011;4324;42.012;24.872;2024-03-07T00:19:21;28.67;;;21.40;;
8572;SDS011;4324;42.012;24.872;2024-03-07T00:21:51;31.03;;;23.07;;
8572;SDS011;4324;42.012;24.872;2024-03-07T00:24:17;28.67;;;22.17;;
8572;SDS011;4324;42.012;24.872;2024-03-07T00:26:44;25.80;;;20.63;;
8572;SDS011;4324;42.012;24.872;2024-03-07T00:29:11;30.43;;;22.40;;
8572;SDS011;4324;42.012;24.872;2024-03-07T00:31:39;27.10;;;21.20;;
8572;SDS011;4324;42.012;24.872;2024-03-07T00:34:07;25.93;;;22.10;;
8572;SDS011;4324;42.012;24.872;2024-03-07T00:36:35;29.50;;;22.90;;
8572;SDS011;4324;42.012;24.872;2024-03-07T00:39:02;26.77;;;21.60;;
8572;SDS011;4324;42.012;24.872;2024-03-07T00:41:29;27.20;;;20.67;;
8572;SDS011;4324;42.012;24.872;2024-03-07T00:43:56;25.17;;;20.47;;
8572;SDS011;4324;42.012;24.872;2024-03-07T00:46:23;23.40;;;19.63;;
8572;SDS011;4324;42.012;24.872;2024-03-07T00:48:51;23.73;;;19.37;;
8572;SDS011;4324;42.012;24.872;2024-03-07T00:51:18;23.83;;;19.93;;
8572;SDS011;4324;42.012;24.872;2024-03-07T00:53:45;22.40;;;18.63;;
8572;SDS011;4324;42.012;24.872;2024-03-07T00:56:12;26.77;;;20.23;;
8572;SDS011;4324;42.012;24.872;2024-03-07T00:58:39;27.03;;;21.40;;
8572;SDS011;4324;42.012;24.872;2024-03-07T01:01:06;29.03;;;22.47;;
8572;SDS011;4324;42.012;24.872;2024-03-07T01:03:33;25.40;;;21.07;;
8572;SDS011;4324;42.012;24.872;2024-03-07T01:06:02;31.47;;;22.83;;
8572;SDS011;4324;42.012;24.872;2024-03-07T01:08:29;33.20;;;23.87;;
8572;SDS011;4324;42.012;24.872;2024-03-07T01:10:57;34.63;;;24.93;;
8572;SDS011;4324;42.012;24.872;2024-03-07T01:13:24;36.80;;;25.43;;
8572;SDS011;4324;42.012;24.872;2024-03-07T01:15:51;34.27;;;25.83;;
8572;SDS011;4324;42.012;24.872;2024-03-07T01:18:18;36.13;;;26.00;;
8572;SDS011;4324;42.012;24.872;2024-03-07T01:20:44;36.17;;;25.23;;
8572;SDS011;4324;42.012;24.872;2024-03-07T01:23:13;32.03;;;25.30;;
8572;SDS011;4324;42.012;24.872;2024-03-07T01:25:39;33.63;;;24.90;;
8572;SDS011;4324;42.012;24.872;2024-03-07T01:28:06;34.67;;;25.03;;
8572;SDS011;4324;42.012;24.872;2024-03-07T01:30:37;36.43;;;25.90;;
8572;SDS011;4324;42.012;24.872;2024-03-07T01:33:04;35.30;;;27.40;;
8572;SDS011;4324;42.012;24.872;2024-03-07T01:35:31;39.70;;;26.43;;
8572;SDS011;4324;42.012;24.872;2024-03-07T01:37:58;34.50;;;25.80;;
8572;SDS011;4324;42.012;24.872;2024-03-07T01:40:26;33.47;;;25.60;;
8572;SDS011;4324;42.012;24.872;2024-03-07T01:42:53;33.90;;;25.43;;
8572;SDS011;4324;42.012;24.872;2024-03-07T01:45:20;41.20;;;26.13;;
8572;SDS011;4324;42.012;24.872;2024-03-07T01:47:47;35.90;;;25.70;;
8572;SDS011;4324;42.012;24.872;2024-03-07T01:50:14;34.73;;;25.60;;
8572;SDS011;4324;42.012;24.872;2024-03-07T01:52:43;31.43;;;23.37;;
8572;SDS011;4324;42.012;24.872;2024-03-07T01:55:11;34.37;;;23.47;;
8572;SDS011;4324;42.012;24.872;2024-03-07T01:57:40;33.13;;;22.17;;
8572;SDS011;4324;42.012;24.872;2024-03-07T02:00:07;32.97;;;23.23;;
8572;SDS011;4324;42.012;24.872;2024-03-07T02:02:35;30.43;;;22.63;;
8572;SDS011;4324;42.012;24.872;2024-03-07T02:05:03;30.30;;;22.60;;
8572;SDS011;4324;42.012;24.872;2024-03-07T02:07:31;31.70;;;22.73;;
8572;SDS011;4324;42.012;24.872;2024-03-07T02:09:59;30.77;;;22.93;;
8572;SDS011;4324;42.012;24.872;2024-03-07T02:12:27;29.33;;;23.23;;
8572;SDS011;4324;42.012;24.872;2024-03-07T02:14:56;29.47;;;22.17;;
8572;SDS011;4324;42.012;24.872;2024-03-07T02:17:23;29.43;;;21.73;;
8572;SDS011;4324;42.012;24.872;2024-03-07T02:19:50;29.50;;;22.83;;
8572;SDS011;4324;42.012;24.872;2024-03-07T02:22:18;27.63;;;22.03;;
8572;SDS011;4324;42.012;24.872;2024-03-07T02:24:45;27.93;;;22.40;;
8572;SDS011;4324;42.012;24.872;2024-03-07T02:27:12;27.27;;;21.37;;
8572;SDS011;4324;42.012;24.872;2024-03-07T02:29:39;28.43;;;21.93;;
8572;SDS011;4324;42.012;24.872;2024-03-07T02:32:07;28.77;;;21.67;;
8572;SDS011;4324;42.012;24.872;2024-03-07T02:34:34;31.03;;;22.33;;
8572;SDS011;4324;42.012;24.872;2024-03-07T02:37:02;30.27;;;22.40;;
8572;SDS011;4324;42.012;24.872;2024-03-07T02:39:30;28.50;;;22.17;;
8572;SDS011;4324;42.012;24.872;2024-03-07T02:41:57;31.77;;;22.30;;
8572;SDS011;4324;42.012;24.872;2024-03-07T02:44:23;28.40;;;21.33;;
8572;SDS011;4324;42.012;24.872;2024-03-07T02:46:50;31.30;;;22.47;;
8572;SDS011;4324;42.012;24.872;2024-03-07T02:49:17;33.87;;;22.13;;
8572;SDS011;4324;42.012;24.872;2024-03-07T02:51:46;28.67;;;22.13;;
8572;SDS011;4324;42.012;24.872;2024-03-07T02:54:13;32.70;;;23.00;;
8572;SDS011;4324;42.012;24.872;2024-03-07T02:56:41;28.63;;;21.13;;
8572;SDS011;4324;42.012;24.872;2024-03-07T02:59:08;28.63;;;20.07;;
8572;SDS011;4324;42.012;24.872;2024-03-07T03:01:35;25.17;;;20.13;;
8572;SDS011;4324;42.012;24.872;2024-03-07T03:04:02;26.80;;;20.10;;
8572;SDS011;4324;42.012;24.872;2024-03-07T03:06:29;23.30;;;18.63;;
8572;SDS011;4324;42.012;24.872;2024-03-07T03:08:56;27.30;;;21.27;;
8572;SDS011;4324;42.012;24.872;2024-03-07T03:11:23;26.27;;;20.30;;
8572;SDS011;4324;42.012;24.872;2024-03-07T03:13:52;27.73;;;19.83;;
8572;SDS011;4324;42.012;24.872;2024-03-07T03:16:19;26.03;;;19.57;;
8572;SDS011;4324;42.012;24.872;2024-03-07T03:18:46;29.93;;;20.50;;
8572;SDS011;4324;42.012;24.872;2024-03-07T03:21:14;23.57;;;18.97;;
8572;SDS011;4324;42.012;24.872;2024-03-07T03:23:42;26.10;;;20.50;;
8572;SDS011;4324;42.012;24.872;2024-03-07T03:26:08;27.50;;;20.33;;
8572;SDS011;4324;42.012;24.872;2024-03-07T03:28:35;29.97;;;20.63;;
8572;SDS011;4324;42.012;24.872;2024-03-07T03:31:04;27.43;;;19.73;;
8572;SDS011;4324;42.012;24.872;2024-03-07T03:33:31;28.97;;;21.00;;
8572;SDS011;4324;42.012;24.872;2024-03-07T03:35:57;32.43;;;21.57;;
8572;SDS011;4324;42.012;24.872;2024-03-07T03:38:24;28.50;;;20.67;;
8572;SDS011;4324;42.012;24.872;2024-03-07T03:40:51;27.23;;;20.63;;
8572;SDS011;4324;42.012;24.872;2024-03-07T03:43:18;29.40;;;21.60;;
8572;SDS011;4324;42.012;24.872;2024-03-07T03:45:45;33.10;;;22.13;;
8572;SDS011;4324;42.012;24.872;2024-03-07T03:48:14;32.37;;;21.30;;
8572;SDS011;4324;42.012;24.872;2024-03-07T03:50:41;31.57;;;22.60;;
8572;SDS011;4324;42.012;24.872;2024-03-07T03:53:07;32.57;;;24.17;;
8572;SDS011;4324;42.012;24.872;2024-03-07T03:55:34;34.33;;;25.07;;
8572;SDS011;4324;42.012;24.872;2024-03-07T03:58:02;36.40;;;24.47;;
8572;SDS011;4324;42.012;24.872;2024-03-07T04:00:31;34.70;;;24.37;;
8572;SDS011;4324;42.012;24.872;2024-03-07T04:02:58;35.53;;;24.33;;
8572;SDS011;4324;42.012;24.872;2024-03-07T04:05:26;36.70;;;24.27;;
8572;SDS011;4324;42.012;24.872;2024-03-07T04:07:53;35.63;;;24.93;;
8572;SDS011;4324;42.012;24.872;2024-03-07T04:10:21;34.43;;;25.00;;
8572;SDS011;4324;42.012;24.872;2024-03-07T04:12:48;34.50;;;25.03;;
8572;SDS011;4324;42.012;24.872;2024-03-07T04:15:15;36.10;;;27.13;;
8572;SDS011;4324;42.012;24.872;2024-03-07T04:17:42;35.67;;;24.90;;
8572;SDS011;4324;42.012;24.872;2024-03-07T04:20:10;35.40;;;25.83;;
8572;SDS011;4324;42.012;24.872;2024-03-07T04:22:40;39.93;;;26.77;;
8572;SDS011;4324;42.012;24.872;2024-03-07T04:25:07;39.13;;;26.67;;
8572;SDS011;4324;42.012;24.872;2024-03-07T04:27:35;39.60;;;26.80;;
8572;SDS011;4324;42.012;24.872;2024-03-07T04:30:05;36.77;;;25.77;;
8572;SDS011;4324;42.012;24.872;2024-03-07T04:32:35;36.97;;;25.83;;
8572;SDS011;4324;42.012;24.872;2024-03-07T04:35:03;33.37;;;24.27;;
8572;SDS011;4324;42.012;24.872;2024-03-07T04:37:33;35.93;;;25.37;;
8572;SDS011;4324;42.012;24.872;2024-03-07T04:40:04;35.57;;;25.67;;
8572;SDS011;4324;42.012;24.872;2024-03-07T04:42:40;33.00;;;22.83;;
8572;SDS011;4324;42.012;24.872;2024-03-07T04:45:08;33.23;;;22.83;;
8572;SDS011;4324;42.012;24.872;2024-03-07T04:47:38;32.37;;;23.10;;
8572;SDS011;4324;42.012;24.872;2024-03-07T04:50:05;33.13;;;23.67;;
8572;SDS011;4324;42.012;24.872;2024-03-07T04:52:35;33.00;;;24.07;;
8572;SDS011;4324;42.012;24.872;2024-03-07T04:55:04;34.60;;;24.53;;
8572;SDS011;4324;42.012;24.872;2024-03-07T04:57:33;33.73;;;25.80;;
8572;SDS011;4324;42.012;24.872;2024-03-07T05:00:00;38.80;;;27.77;;
8572;SDS011;4324;42.012;24.872;2024-03-07T05:02:28;40.70;;;30.73;;
8572;SDS011;4324;42.012;24.872;2024-03-07T05:04:56;37.83;;;27.47;;
8572;SDS011;4324;42.012;24.872;2024-03-07T05:07:22;40.83;;;26.80;;
8572;SDS011;4324;42.012;24.872;2024-03-07T05:09:49;39.87;;;27.87;;
8572;SDS011;4324;42.012;24.872;2024-03-07T05:12:17;43.60;;;28.57;;
8572;SDS011;4324;42.012;24.872;2024-03-07T05:14:44;38.33;;;26.57;;
8572;SDS011;4324;42.012;24.872;2024-03-07T05:17:11;37.97;;;27.83;;
8572;SDS011;4324;42.012;24.872;2024-03-07T05:19:38;35.73;;;27.50;;
8572;SDS011;4324;42.012;24.872;2024-03-07T05:22:05;40.97;;;27.60;;
8572;SDS011;4324;42.012;24.872;2024-03-07T05:24:32;40.83;;;28.93;;
8572;SDS011;4324;42.012;24.872;2024-03-07T05:26:59;35.70;;;25.13;;
8572;SDS011;4324;42.012;24.872;2024-03-07T05:29:27;35.30;;;25.63;;
8572;SDS011;4324;42.012;24.872;2024-03-07T05:31:54;31.53;;;23.30;;
8572;SDS011;4324;42.012;24.872;2024-03-07T05:34:20;33.23;;;23.73;;
8572;SDS011;4324;42.012;24.872;2024-03-07T05:36:48;25.63;;;20.77;;
8572;SDS011;4324;42.012;24.872;2024-03-07T05:39:16;39.83;;;27.60;;
8572;SDS011;4324;42.012;24.872;2024-03-07T05:41:44;37.47;;;26.07;;
8572;SDS011;4324;42.012;24.872;2024-03-07T05:44:11;35.30;;;25.20;;
8572;SDS011;4324;42.012;24.872;2024-03-07T05:46:40;38.50;;;27.67;;
8572;SDS011;4324;42.012;24.872;2024-03-07T05:49:11;34.17;;;24.43;;
8572;SDS011;4324;42.012;24.872;2024-03-07T05:51:38;31.27;;;24.17;;
8572;SDS011;4324;42.012;24.872;2024-03-07T05:54:07;36.53;;;25.60;;
8572;SDS011;4324;42.012;24.872;2024-03-07T05:56:34;33.60;;;24.20;;
8572;SDS011;4324;42.012;24.872;2024-03-07T05:59:01;35.93;;;24.53;;
8572;SDS011;4324;42.012;24.872;2024-03-07T06:01:30;38.67;;;27.07;;
8572;SDS011;4324;42.012;24.872;2024-03-07T06:04:01;33.97;;;23.10;;
8572;SDS011;4324;42.012;24.872;2024-03-07T06:06:30;30.70;;;22.03;;
8572;SDS011;4324;42.012;24.872;2024-03-07T06:08:58;32.70;;;25.27;;
8572;SDS011;4324;42.012;24.872;2024-03-07T06:11:25;33.33;;;23.37;;
8572;SDS011;4324;42.012;24.872;2024-03-07T06:13:52;40.47;;;26.93;;
8572;SDS011;4324;42.012;24.872;2024-03-07T06:16:18;40.47;;;28.43;;
8572;SDS011;4324;42.012;24.872;2024-03-07T06:18:45;52.33;;;33.83;;
8572;SDS011;4324;42.012;24.872;2024-03-07T06:21:13;51.73;;;33.33;;
8572;SDS011;4324;42.012;24.872;2024-03-07T06:23:41;59.70;;;37.53;;
8572;SDS011;4324;42.012;24.872;2024-03-07T06:26:12;45.37;;;28.30;;
8572;SDS011;4324;42.012;24.872;2024-03-07T06:28:42;53.33;;;33.20;;
8572;SDS011;4324;42.012;24.872;2024-03-07T06:31:10;50.10;;;31.73;;
8572;SDS011;4324;42.012;24.872;2024-03-07T06:33:37;49.20;;;34.10;;
8572;SDS011;4324;42.012;24.872;2024-03-07T06:36:04;48.10;;;34.07;;
8572;SDS011;4324;42.012;24.872;2024-03-07T06:38:33;46.83;;;30.73;;
8572;SDS011;4324;42.012;24.872;2024-03-07T06:41:00;49.07;;;30.50;;
8572;SDS011;4324;42.012;24.872;2024-03-07T06:43:26;49.23;;;30.83;;
8572;SDS011;4324;42.012;24.872;2024-03-07T06:45:54;51.80;;;33.77;;
8572;SDS011;4324;42.012;24.872;2024-03-07T06:48:21;47.37;;;32.43;;
8572;SDS011;4324;42.012;24.872;2024-03-07T06:50:48;43.37;;;30.50;;
8572;SDS011;4324;42.012;24.872;2024-03-07T06:53:16;51.00;;;31.53;;
8572;SDS011;4324;42.012;24.872;2024-03-07T06:55:44;44.87;;;31.20;;
8572;SDS011;4324;42.012;24.872;2024-03-07T06:58:11;45.93;;;31.30;;
8572;SDS011;4324;42.012;24.872;2024-03-07T07:00:37;52.43;;;33.53;;
8572;SDS011;4324;42.012;24.872;2024-03-07T07:03:08;48.17;;;33.20;;
8572;SDS011;4324;42.012;24.872;2024-03-07T07:05:37;45.67;;;31.10;;
8572;SDS011;4324;42.012;24.872;2024-03-07T07:08:06;44.70;;;31.27;;
8572;SDS011;4324;42.012;24.872;2024-03-07T07:10:34;39.37;;;29.77;;
8572;SDS011;4324;42.012;24.872;2024-03-07T07:13:02;47.83;;;29.93;;
8572;SDS011;4324;42.012;24.872;2024-03-07T07:15:30;49.77;;;30.50;;
8572;SDS011;4324;42.012;24.872;2024-03-07T07:17:57;47.27;;;30.27;;
8572;SDS011;4324;42.012;24.872;2024-03-07T07:20:24;48.13;;;31.40;;
8572;SDS011;4324;42.012;24.872;2024-03-07T07:22:51;49.10;;;33.50;;
8572;SDS011;4324;42.012;24.872;2024-03-07T07:25:18;52.43;;;35.13;;
8572;SDS011;4324;42.012;24.872;2024-03-07T07:27:47;54.97;;;35.73;;
8572;SDS011;4324;42.012;24.872;2024-03-07T07:30:16;48.57;;;34.33;;
8572;SDS011;4324;42.012;24.872;2024-03-07T07:32:44;55.50;;;36.57;;
8572;SDS011;4324;42.012;24.872;2024-03-07T07:35:12;59.70;;;37.00;;
8572;SDS011;4324;42.012;24.872;2024-03-07T07:37:40;61.13;;;38.13;;
8572;SDS011;4324;42.012;24.872;2024-03-07T07:40:07;60.40;;;40.00;;
8572;SDS011;4324;42.012;24.872;2024-03-07T07:42:38;58.10;;;38.43;;
8572;SDS011;4324;42.012;24.872;2024-03-07T07:45:07;56.10;;;37.10;;
8572;SDS011;4324;42.012;24.872;2024-03-07T07:47:38;58.20;;;38.97;;
8572;SDS011;4324;42.012;24.872;2024-03-07T07:50:06;50.30;;;36.17;;
8572;SDS011;4324;42.012;24.872;2024-03-07T07:52:41;56.83;;;37.20;;
8572;SDS011;4324;42.012;24.872;2024-03-07T07:55:08;46.83;;;31.70;;
8572;SDS011;4324;42.012;24.872;2024-03-07T07:57:40;53.20;;;33.17;;
8572;SDS011;4324;42.012;24.872;2024-03-07T08:00:10;55.03;;;34.93;;
8572;SDS011;4324;42.012;24.872;2024-03-07T08:02:48;49.40;;;33.70;;
8572;SDS011;4324;42.012;24.872;2024-03-07T08:05:16;54.63;;;35.23;;
8572;SDS011;4324;42.012;24.872;2024-03-07T08:07:44;54.00;;;35.73;;
8572;SDS011;4324;42.012;24.872;2024-03-07T08:10:13;47.33;;;32.90;;
8572;SDS011;4324;42.012;24.872;2024-03-07T08:12:40;48.07;;;34.50;;
8572;SDS011;4324;42.012;24.872;2024-03-07T08:15:09;43.27;;;31.80;;
8572;SDS011;4324;42.012;24.872;2024-03-07T08:17:41;45.10;;;29.53;;
8572;SDS011;4324;42.012;24.872;2024-03-07T08:20:12;50.83;;;36.00;;
8572;SDS011;4324;42.012;24.872;2024-03-07T08:22:39;43.33;;;30.43;;
8572;SDS011;4324;42.012;24.872;2024-03-07T08:25:07;43.07;;;31.23;;
8572;SDS011;4324;42.012;24.872;2024-03-07T08:27:35;45.87;;;32.50;;
8572;SDS011;4324;42.012;24.872;2024-03-07T08:30:03;46.90;;;31.50;;
8572;SDS011;4324;42.012;24.872;2024-03-07T08:32:32;46.00;;;31.50;;
8572;SDS011;4324;42.012;24.872;2024-03-07T08:35:02;49.97;;;35.47;;
8572;SDS011;4324;42.012;24.872;2024-03-07T08:37:34;52.77;;;32.70;;
8572;SDS011;4324;42.012;24.872;2024-03-07T08:40:02;50.47;;;32.03;;
8572;SDS011;4324;42.012;24.872;2024-03-07T08:42:32;51.23;;;31.93;;
8572;SDS011;4324;42.012;24.872;2024-03-07T08:44:59;47.50;;;32.37;;
8572;SDS011;4324;42.012;24.872;2024-03-07T08:47:26;53.03;;;33.30;;
8572;SDS011;4324;42.012;24.872;2024-03-07T08:49:55;54.07;;;36.00;;
8572;SDS011;4324;42.012;24.872;2024-03-07T08:52:22;55.57;;;37.67;;
8572;SDS011;4324;42.012;24.872;2024-03-07T08:54:50;53.27;;;34.03;;
8572;SDS011;4324;42.012;24.872;2024-03-07T08:57:17;52.07;;;36.10;;
8572;SDS011;4324;42.012;24.872;2024-03-07T08:59:44;50.07;;;34.17;;
8572;SDS011;4324;42.012;24.872;2024-03-07T09:02:12;57.33;;;36.43;;
8572;SDS011;4324;42.012;24.872;2024-03-07T09:04:40;52.80;;;36.43;;
8572;SDS011;4324;42.012;24.872;2024-03-07T09:07:06;59.87;;;38.33;;
8572;SDS011;4324;42.012;24.872;2024-03-07T09:09:34;62.73;;;39.87;;
8572;SDS011;4324;42.012;24.872;2024-03-07T09:12:02;65.60;;;43.33;;
8572;SDS011;4324;42.012;24.872;2024-03-07T09:14:30;68.10;;;45.40;;
8572;SDS011;4324;42.012;24.872;2024-03-07T09:16:57;60.07;;;39.20;;
8572;SDS011;4324;42.012;24.872;2024-03-07T09:19:24;61.03;;;38.43;;
8572;SDS011;4324;42.012;24.872;2024-03-07T09:21:52;57.17;;;38.57;;
8572;SDS011;4324;42.012;24.872;2024-03-07T09:24:19;62.43;;;40.37;;
8572;SDS011;4324;42.012;24.872;2024-03-07T09:26:48;62.53;;;39.53;;
8572;SDS011;4324;42.012;24.872;2024-03-07T09:29:16;61.53;;;37.13;;
8572;SDS011;4324;42.012;24.872;2024-03-07T09:31:43;61.63;;;37.10;;
8572;SDS011;4324;42.012;24.872;2024-03-07T09:34:10;53.57;;;36.43;;
8572;SDS011;4324;42.012;24.872;2024-03-07T09:36:37;61.83;;;37.10;;
8572;SDS011;4324;42.012;24.872;2024-03-07T09:39:06;65.17;;;40.40;;
8572;SDS011;4324;42.012;24.872;2024-03-07T09:41:33;57.50;;;36.93;;
8572;SDS011;4324;42.012;24.872;2024-03-07T09:44:00;62.73;;;39.53;;
8572;SDS011;4324;42.012;24.872;2024-03-07T09:46:29;60.53;;;38.50;;
8572;SDS011;4324;42.012;24.872;2024-03-07T09:48:57;56.43;;;37.77;;
8572;SDS011;4324;42.012;24.872;2024-03-07T09:51:24;62.73;;;38.93;;
8572;SDS011;4324;42.012;24.872;2024-03-07T09:53:53;59.00;;;36.13;;
8572;SDS011;4324;42.012;24.872;2024-03-07T09:56:23;54.53;;;35.93;;
8572;SDS011;4324;42.012;24.872;2024-03-07T09:58:54;54.77;;;37.07;;
8572;SDS011;4324;42.012;24.872;2024-03-07T10:01:25;57.50;;;37.40;;
8572;SDS011;4324;42.012;24.872;2024-03-07T10:03:57;60.13;;;37.63;;
8572;SDS011;4324;42.012;24.872;2024-03-07T10:06:30;61.57;;;38.07;;
8572;SDS011;4324;42.012;24.872;2024-03-07T10:08:58;64.53;;;38.83;;
8572;SDS011;4324;42.012;24.872;2024-03-07T10:11:25;50.77;;;34.30;;
8572;SDS011;4324;42.012;24.872;2024-03-07T10:13:52;51.13;;;35.80;;
8572;SDS011;4324;42.012;24.872;2024-03-07T10:16:20;53.70;;;34.23;;
8572;SDS011;4324;42.012;24.872;2024-03-07T10:18:48;50.73;;;33.47;;
8572;SDS011;4324;42.012;24.872;2024-03-07T10:21:19;43.93;;;31.33;;
8572;SDS011;4324;42.012;24.872;2024-03-07T10:23:47;42.90;;;31.40;;
8572;SDS011;4324;42.012;24.872;2024-03-07T10:26:15;43.87;;;30.80;;
8572;SDS011;4324;42.012;24.872;2024-03-07T10:28:42;37.80;;;28.80;;
8572;SDS011;4324;42.012;24.872;2024-03-07T10:31:09;38.57;;;29.20;;
8572;SDS011;4324;42.012;24.872;2024-03-07T10:33:40;36.97;;;26.77;;
8572;SDS011;4324;42.012;24.872;2024-03-07T10:36:09;39.47;;;29.10;;
8572;SDS011;4324;42.012;24.872;2024-03-07T10:38:40;37.73;;;27.67;;
8572;SDS011;4324;42.012;24.872;2024-03-07T10:41:07;35.40;;;27.53;;
8572;SDS011;4324;42.012;24.872;2024-03-07T10:43:36;36.93;;;29.63;;
8572;SDS011;4324;42.012;24.872;2024-03-07T10:46:08;35.50;;;26.03;;
8572;SDS011;4324;42.012;24.872;2024-03-07T10:48:38;38.60;;;29.07;;
8572;SDS011;4324;42.012;24.872;2024-03-07T10:51:10;40.50;;;28.00;;
8572;SDS011;4324;42.012;24.872;2024-03-07T10:53:51;41.83;;;28.50;;
8572;SDS011;4324;42.012;24.872;2024-03-07T10:56:29;36.03;;;27.80;;
8572;SDS011;4324;42.012;24.872;2024-03-07T10:59:11;37.13;;;27.70;;
8572;SDS011;4324;42.012;24.872;2024-03-07T11:01:45;37.63;;;28.00;;
8572;SDS011;4324;42.012;24.872;2024-03-07T11:04:16;38.00;;;28.27;;
8572;SDS011;4324;42.012;24.872;2024-03-07T11:06:43;36.47;;;27.67;;
8572;SDS011;4324;42.012;24.872;2024-03-07T11:09:12;39.77;;;29.33;;
8572;SDS011;4324;42.012;24.872;2024-03-07T11:11:39;41.47;;;31.67;;
8572;SDS011;4324;42.012;24.872;2024-03-07T11:14:08;38.60;;;27.80;;
8572;SDS011;4324;42.012;24.872;2024-03-07T11:16:37;38.90;;;29.40;;
8572;SDS011;4324;42.012;24.872;2024-03-07T11:19:18;40.53;;;29.50;;
8572;SDS011;4324;42.012;24.872;2024-03-07T11:21:46;41.77;;;31.03;;
8572;SDS011;4324;42.012;24.872;2024-03-07T11:24:24;43.83;;;31.00;;
8572;SDS011;4324;42.012;24.872;2024-03-07T11:26:54;42.30;;;30.87;;
8572;SDS011;4324;42.012;24.872;2024-03-07T11:32:09;44.70;;;31.90;;
8572;SDS011;4324;42.012;24.872;2024-03-07T11:34:38;45.30;;;31.67;;
8572;SDS011;4324;42.012;24.872;2024-03-07T11:37:07;43.00;;;30.57;;
8572;SDS011;4324;42.012;24.872;2024-03-07T11:39:44;44.67;;;31.03;;
8572;SDS011;4324;42.012;24.872;2024-03-07T11:42:19;50.33;;;37.50;;
8572;SDS011;4324;42.012;24.872;2024-03-07T11:44:50;46.23;;;34.47;;
8572;SDS011;4324;42.012;24.872;2024-03-07T11:47:21;45.73;;;32.50;;
8572;SDS011;4324;42.012;24.872;2024-03-07T11:49:49;46.63;;;35.37;;
8572;SDS011;4324;42.012;24.872;2024-03-07T11:52:17;54.57;;;37.27;;
8572;SDS011;4324;42.012;24.872;2024-03-07T11:54:46;49.07;;;37.40;;
8572;SDS011;4324;42.012;24.872;2024-03-07T11:57:15;46.53;;;34.37;;
8572;SDS011;4324;42.012;24.872;2024-03-07T11:59:44;47.03;;;34.13;;
8572;SDS011;4324;42.012;24.872;2024-03-07T12:02:12;52.10;;;37.73;;
8572;SDS011;4324;42.012;24.872;2024-03-07T12:04:41;49.77;;;36.37;;
8572;SDS011;4324;42.012;24.872;2024-03-07T12:07:08;44.50;;;34.30;;
8572;SDS011;4324;42.012;24.872;2024-03-07T12:09:36;41.10;;;29.97;;
8572;SDS011;4324;42.012;24.872;2024-03-07T12:12:05;43.33;;;32.37;;
8572;SDS011;4324;42.012;24.872;2024-03-07T12:14:32;40.37;;;31.17;;
8572;SDS011;4324;42.012;24.872;2024-03-07T12:16:59;37.90;;;30.73;;
8572;SDS011;4324;42.012;24.872;2024-03-07T12:19:29;45.50;;;34.33;;
8572;SDS011;4324;42.012;24.872;2024-03-07T12:21:59;40.83;;;30.83;;
8572;SDS011;4324;42.012;24.872;2024-03-07T12:24:27;51.27;;;38.57;;
8572;SDS011;4324;42.012;24.872;2024-03-07T12:27:05;40.57;;;31.53;;
8572;SDS011;4324;42.012;24.872;2024-03-07T12:29:34;40.97;;;30.53;;
8572;SDS011;4324;42.012;24.872;2024-03-07T12:32:03;40.60;;;30.70;;
8572;SDS011;4324;42.012;24.872;2024-03-07T12:34:31;37.63;;;29.70;;
8572;SDS011;4324;42.012;24.872;2024-03-07T12:37:02;33.80;;;27.73;;
8572;SDS011;4324;42.012;24.872;2024-03-07T12:39:31;36.17;;;28.60;;
8572;SDS011;4324;42.012;24.872;2024-03-07T12:42:00;31.83;;;26.50;;
8572;SDS011;4324;42.012;24.872;2024-03-07T12:44:39;33.27;;;27.10;;
8572;SDS011;4324;42.012;24.872;2024-03-07T12:47:09;34.57;;;26.23;;
8572;SDS011;4324;42.012;24.872;2024-03-07T12:49:37;37.13;;;30.13;;
8572;SDS011;4324;42.012;24.872;2024-03-07T12:52:04;33.83;;;29.13;;
8572;SDS011;4324;42.012;24.872;2024-03-07T12:54:33;38.33;;;31.63;;
8572;SDS011;4324;42.012;24.872;2024-03-07T12:57:00;40.33;;;32.00;;
8572;SDS011;4324;42.012;24.872;2024-03-07T12:59:30;48.60;;;40.10;;
8572;SDS011;4324;42.012;24.872;2024-03-07T13:01:59;43.10;;;34.17;;
8572;SDS011;4324;42.012;24.872;2024-03-07T13:04:25;32.90;;;27.60;;
8572;SDS011;4324;42.012;24.872;2024-03-07T13:06:52;34.93;;;28.17;;
8572;SDS011;4324;42.012;24.872;2024-03-07T13:09:19;34.73;;;29.23;;
8572;SDS011;4324;42.012;24.872;2024-03-07T13:11:52;35.10;;;29.10;;
8572;SDS011;4324;42.012;24.872;2024-03-07T13:14:19;37.97;;;30.10;;
8572;SDS011;4324;42.012;24.872;2024-03-07T13:16:46;32.13;;;26.80;;
8572;SDS011;4324;42.012;24.872;2024-03-07T13:19:14;35.73;;;30.23;;
8572;SDS011;4324;42.012;24.872;2024-03-07T13:21:46;31.47;;;28.07;;
8572;SDS011;4324;42.012;24.872;2024-03-07T13:24:14;30.40;;;26.73;;
8572;SDS011;4324;42.012;24.872;2024-03-07T13:26:40;30.47;;;27.30;;
8572;SDS011;4324;42.012;24.872;2024-03-07T13:29:09;28.13;;;25.23;;
8572;SDS011;4324;42.012;24.872;2024-03-07T13:31:35;28.87;;;25.00;;
8572;SDS011;4324;42.012;24.872;2024-03-07T13:34:02;31.13;;;27.70;;
8572;SDS011;4324;42.012;24.872;2024-03-07T13:36:31;34.00;;;29.27;;
8572;SDS011;4324;42.012;24.872;2024-03-07T13:38:57;33.07;;;27.73;;
8572;SDS011;4324;42.012;24.872;2024-03-07T13:41:24;31.30;;;27.90;;
8572;SDS011;4324;42.012;24.872;2024-03-07T13:43:53;33.90;;;29.37;;
8572;SDS011;4324;42.012;24.872;2024-03-07T13:46:20;29.97;;;26.83;;
8572;SDS011;4324;42.012;24.872;2024-03-07T13:48:47;28.70;;;25.37;;
8572;SDS011;4324;42.012;24.872;2024-03-07T13:51:14;29.20;;;25.30;;
8572;SDS011;4324;42.012;24.872;2024-03-07T13:53:43;32.60;;;25.67;;
8572;SDS011;4324;42.012;24.872;2024-03-07T13:56:30;31.17;;;27.53;;
8572;SDS011;4324;42.012;24.872;2024-03-07T14:02:01;32.27;;;26.10;;
8572;SDS011;4324;42.012;24.872;2024-03-07T14:04:55;29.23;;;25.53;;
8572;SDS011;4324;42.012;24.872;2024-03-07T14:07:53;29.70;;;24.13;;
8572;SDS011;4324;42.012;24.872;2024-03-07T14:10:50;27.50;;;23.37;;
8572;SDS011;4324;42.012;24.872;2024-03-07T14:13:44;29.47;;;25.53;;
8572;SDS011;4324;42.012;24.872;2024-03-07T14:16:48;30.20;;;26.20;;
8572;SDS011;4324;42.012;24.872;2024-03-07T14:22:54;29.07;;;23.27;;
8572;SDS011;4324;42.012;24.872;2024-03-07T14:25:43;24.77;;;21.27;;
8572;SDS011;4324;42.012;24.872;2024-03-07T14:28:48;26.00;;;22.90;;
8572;SDS011;4324;42.012;24.872;2024-03-07T14:31:26;25.23;;;21.83;;
8572;SDS011;4324;42.012;24.872;2024-03-07T14:34:01;24.80;;;21.83;;
8572;SDS011;4324;42.012;24.872;2024-03-07T14:36:35;20.43;;;18.33;;
8572;SDS011;4324;42.012;24.872;2024-03-07T14:39:05;21.17;;;18.23;;
8572;SDS011;4324;42.012;24.872;2024-03-07T14:41:47;22.07;;;18.97;;
8572;SDS011;4324;42.012;24.872;2024-03-07T14:44:16;21.40;;;17.60;;
8572;SDS011;4324;42.012;24.872;2024-03-07T14:46:46;20.73;;;18.20;;
8572;SDS011;4324;42.012;24.872;2024-03-07T14:49:16;18.90;;;16.80;;
8572;SDS011;4324;42.012;24.872;2024-03-07T14:51:44;18.67;;;16.67;;
8572;SDS011;4324;42.012;24.872;2024-03-07T14:54:14;21.73;;;18.03;;